Time;durP1;ratioP1;P1;durP2;ratioP2;P2;SDS_P1;SDS_P2;PMS_P1;PMS_P2;Temp;Humidity;BMP_temperature;BMP_pressure;BME280_temperature;BME280_humidity;BME280_pressure;Samples;Min_cycle;Max_cycle;Signal;HPM_P1;HPM_P2
2023/09/07 00:01:07;;;;;;;10.20;9.20;;;;;;;17.50;100.00;101749.88;4990560;28;20566;-63
2023/09/07 00:03:32;;;;;;;9.90;8.95;;;;;;;17.49;100.00;101747.25;4990969;28;20135;-66
2023/09/07 00:05:57;;;;;;;9.02;8.20;;;;;;;17.45;100.00;101750.69;4989940;28;20105;-66
2023/09/07 00:08:23;;;;;;;11.05;10.05;;;;;;;17.39;100.00;101741.88;4990391;28;20489;-66
2023/09/07 00:10:49;;;;;;;11.38;10.38;;;;;;;17.35;100.00;101742.66;4989917;28;20026;-66
2023/09/07 00:13:14;;;;;;;14.20;12.95;;;;;;;17.31;100.00;101739.94;4990441;28;20037;-65
2023/09/07 00:15:39;;;;;;;18.42;16.75;;;;;;;17.28;100.00;101740.78;4990197;28;20030;-65
2023/09/07 00:18:05;;;;;;;14.27;13.07;;;;;;;17.25;100.00;101736.34;4989843;28;20076;-66
2023/09/07 00:20:33;;;;;;;11.77;10.57;;;;;;;17.24;100.00;101737.22;4990090;28;20045;-66
2023/09/07 00:22:58;;;;;;;11.90;10.70;;;;;;;17.23;100.00;101735.47;4990571;28;20477;-66
2023/09/07 00:25:23;;;;;;;8.30;6.28;;;;;;;17.19;100.00;101733.63;4990377;28;20153;-65
2023/09/07 00:27:48;;;;;;;10.80;9.80;;;;;;;17.17;100.00;101730.09;4989034;28;20085;-66
2023/09/07 00:30:14;;;;;;;15.32;10.38;;;;;;;17.15;100.00;101737.94;4989957;28;20030;-66
2023/09/07 00:32:40;;;;;;;11.80;10.68;;;;;;;17.14;100.00;101724.81;4989670;28;20030;-64
2023/09/07 00:35:05;;;;;;;12.45;11.15;;;;;;;17.13;100.00;101726.53;4989581;28;20034;-65
2023/09/07 00:37:31;;;;;;;12.45;11.30;;;;;;;17.12;100.00;101722.19;4989691;28;20037;-65
2023/09/07 00:39:57;;;;;;;11.55;10.55;;;;;;;17.13;100.00;101720.41;4989717;28;20735;-64
2023/09/07 00:42:22;;;;;;;12.18;11.07;;;;;;;17.13;100.00;101717.78;4989827;28;20042;-64
2023/09/07 00:44:48;;;;;;;13.23;11.90;;;;;;;17.14;100.00;101724.81;4989658;28;20430;-65
2023/09/07 00:47:14;;;;;;;12.07;10.90;;;;;;;17.12;100.00;101716.03;4989273;28;20041;-66
2023/09/07 00:49:39;;;;;;;12.32;11.23;;;;;;;17.09;100.00;101724.69;4988839;28;20461;-66
2023/09/07 00:52:07;;;;;;;13.18;11.98;;;;;;;17.06;100.00;101714.16;4989262;28;20030;-63
2023/09/07 00:54:34;;;;;;;12.77;11.60;;;;;;;17.02;100.00;101723.69;4989010;28;20034;-65
2023/09/07 00:56:59;;;;;;;12.93;11.65;;;;;;;17.02;100.00;101730.66;4989214;28;20484;-65
2023/09/07 00:59:25;;;;;;;13.85;12.25;;;;;;;17.01;100.00;101724.56;4988192;28;20114;-64
2023/09/07 01:01:50;;;;;;;11.75;10.18;;;;;;;16.99;100.00;101726.25;4988945;28;20034;-65
2023/09/07 01:04:16;;;;;;;10.15;9.25;;;;;;;16.94;100.00;101733.13;4989087;28;20462;-65
2023/09/07 01:06:52;;;;;;;11.73;9.88;;;;;;;16.90;100.00;101732.19;4989218;28;20032;-65
2023/09/07 01:09:23;;;;;;;12.55;11.40;;;;;;;16.88;100.00;101722.53;4989201;28;20065;-64
2023/09/07 01:11:48;;;;;;;;;;;;;;;16.88;100.00;101722.53;4989251;28;20246;-66
2023/09/07 01:14:14;;;;;;;14.10;12.70;;;;;;;16.88;100.00;101722.53;4988738;28;19917;-66
2023/09/07 01:16:40;;;;;;;13.52;12.38;;;;;;;16.86;100.00;101727.75;4989108;28;20073;-65
2023/09/07 01:19:06;;;;;;;12.77;11.70;;;;;;;16.83;100.00;101729.41;4988946;28;20026;-66
2023/09/07 01:21:38;;;;;;;12.70;11.70;;;;;;;16.82;100.00;101717.19;4989174;28;20394;-64
2023/09/07 01:24:07;;;;;;;13.95;12.45;;;;;;;16.76;100.00;101708.38;4988755;28;20022;-65
2023/09/07 01:26:33;;;;;;;13.55;12.23;;;;;;;16.74;100.00;101720.53;4988496;28;20468;-63
2023/09/07 01:28:58;;;;;;;14.25;12.73;;;;;;;16.74;100.00;101710.06;4988736;28;20022;-66
2023/09/07 01:31:23;;;;;;;13.95;12.65;;;;;;;16.70;100.00;101716.06;4988896;28;20030;-65
2023/09/07 01:33:49;;;;;;;13.25;11.98;;;;;;;16.68;100.00;101720.41;4987958;28;20073;-65
2023/09/07 01:36:14;;;;;;;13.02;11.95;;;;;;;16.66;100.00;101719.47;4988253;28;20748;-65
2023/09/07 01:38:39;;;;;;;13.63;12.43;;;;;;;16.64;100.00;101713.34;4988144;28;20026;-65
2023/09/07 01:41:04;;;;;;;14.27;12.70;;;;;;;16.61;100.00;101713.25;4988561;28;20544;-66
2023/09/07 01:43:30;;;;;;;13.98;12.77;;;;;;;16.60;100.00;101711.50;4988357;28;20065;-66
2023/09/07 01:45:55;;;;;;;13.80;12.60;;;;;;;16.59;100.00;101699.25;4988296;28;20026;-66
2023/09/07 01:48:20;;;;;;;13.85;12.52;;;;;;;16.58;100.00;101702.75;4970850;28;20030;-62
2023/09/07 01:50:45;;;;;;;14.38;13.10;;;;;;;16.54;100.00;101702.69;4988912;28;20032;-66
2023/09/07 01:53:11;;;;;;;13.75;12.50;;;;;;;16.54;100.00;101707.03;4987901;28;20026;-66
2023/09/07 01:55:36;;;;;;;14.65;13.32;;;;;;;16.52;100.00;101701.78;4988738;28;20377;-65
2023/09/07 01:58:01;;;;;;;14.52;13.23;;;;;;;16.50;100.00;101711.31;4987707;28;20454;-64
2023/09/07 02:00:27;;;;;;;14.10;12.93;;;;;;;16.46;100.00;101700.75;4988319;28;20026;-65
2023/09/07 02:02:52;;;;;;;15.52;13.82;;;;;;;16.42;100.00;101707.66;4987799;28;20030;-63
2023/09/07 02:05:17;;;;;;;14.48;13.07;;;;;;;16.41;100.00;101706.78;4988707;28;20105;-64
2023/09/07 02:07:43;;;;;;;15.07;13.68;;;;;;;16.40;100.00;101704.13;4988477;28;20289;-65
2023/09/07 02:10:09;;;;;;;15.00;13.50;;;;;;;16.39;100.00;101704.97;4988388;28;20069;-65
2023/09/07 02:12:34;;;;;;;14.65;13.20;;;;;;;16.36;100.00;101697.06;4988398;28;20624;-65
2023/09/07 02:15:02;;;;;;;14.60;13.25;;;;;;;16.32;100.00;101702.22;4987805;28;20113;-66
2023/09/07 02:17:27;;;;;;;14.52;13.13;;;;;;;16.28;100.00;101700.38;4988504;28;20378;-65
2023/09/07 02:19:53;;;;;;;14.25;13.10;;;;;;;16.26;100.00;101704.69;4988237;28;20022;-65
2023/09/07 02:22:18;;;;;;;15.07;13.70;;;;;;;16.25;100.00;101700.31;4987757;28;20033;-65
2023/09/07 02:24:43;;;;;;;14.48;13.15;;;;;;;16.24;100.00;101698.56;4987985;28;20026;-65
2023/09/07 02:27:09;;;;;;;14.13;12.77;;;;;;;16.22;100.00;101695.03;4987329;28;20135;-66
2023/09/07 02:29:34;;;;;;;14.27;13.00;;;;;;;16.19;100.00;101703.69;4987862;28;20034;-65
2023/09/07 02:32:00;;;;;;;14.57;12.98;;;;;;;16.17;100.00;101694.06;4987972;28;20065;-65
2023/09/07 02:34:26;;;;;;;15.10;13.70;;;;;;;16.16;100.00;101701.00;4987450;28;20042;-63
2023/09/07 02:36:51;;;;;;;14.45;13.10;;;;;;;16.14;100.00;101701.81;4987441;28;20026;-66
2023/09/07 02:39:17;;;;;;;14.45;13.13;;;;;;;16.11;100.00;101697.41;4988348;28;20081;-65
2023/09/07 02:41:42;;;;;;;14.52;13.20;;;;;;;16.10;100.00;101700.00;4988028;28;20049;-66
2023/09/07 02:44:07;;;;;;;14.32;12.82;;;;;;;16.07;100.00;101701.69;4987414;28;20029;-66
2023/09/07 02:46:33;;;;;;;14.75;13.25;;;;;;;16.07;100.00;101706.91;4988107;28;20085;-65
2023/09/07 02:48:58;;;;;;;15.43;13.93;;;;;;;16.04;100.00;101701.63;4991607;28;20025;-64
2023/09/07 02:51:24;;;;;;;14.63;13.43;;;;;;;16.03;100.00;101702.44;4991856;28;20037;-65
2023/09/07 02:53:50;;;;;;;14.98;13.60;;;;;;;16.02;100.00;101697.19;4991721;28;20134;-65
2023/09/07 02:56:15;;;;;;;15.00;13.50;;;;;;;16.01;100.00;101701.53;4991381;28;20022;-66
2023/09/07 02:58:40;;;;;;;14.45;13.02;;;;;;;16.00;100.00;101699.78;4973724;28;20081;-66
2023/09/07 03:01:09;;;;;;;13.75;12.55;;;;;;;16.00;100.00;101693.66;4991071;28;20363;-65
2023/09/07 03:03:35;;;;;;;14.43;12.98;;;;;;;16.02;100.00;101694.56;4991671;28;20478;-64
2023/09/07 03:06:19;;;;;;;15.45;14.02;;;;;;;16.01;100.00;101692.81;4991836;28;20037;-66
2023/09/07 03:08:45;;;;;;;15.38;13.90;;;;;;;15.99;100.00;101687.53;4991788;28;20030;-65
2023/09/07 03:11:11;;;;;;;14.88;13.50;;;;;;;15.99;100.00;101687.53;4990793;28;20036;-65
2023/09/07 03:13:37;;;;;;;15.93;14.43;;;;;;;15.97;100.00;101694.44;4991708;28;20055;-65
2023/09/07 03:16:03;;;;;;;15.23;13.82;;;;;;;15.94;100.00;101691.75;4991376;28;20426;-66
2023/09/07 03:18:28;;;;;;;14.18;12.88;;;;;;;15.92;100.00;101698.69;4990745;28;20117;-65
2023/09/07 03:20:55;;;;;;;15.85;14.45;;;;;;;15.87;100.00;101698.56;4991136;28;20191;-66
2023/09/07 03:23:21;;;;;;;14.80;13.60;;;;;;;15.87;100.00;101700.28;4973279;28;20026;-65
2023/09/07 03:25:48;;;;;;;15.70;14.30;;;;;;;15.84;100.00;101699.38;4991204;28;20023;-66
2023/09/07 03:28:13;;;;;;;16.17;14.57;;;;;;;15.81;100.00;101688.84;4990905;28;20049;-65
2023/09/07 03:30:38;;;;;;;15.40;14.02;;;;;;;15.80;100.00;101694.03;4991047;28;20022;-66
2023/09/07 03:33:05;;;;;;;14.90;13.65;;;;;;;15.78;100.00;101691.38;4990517;28;20093;-65
2023/09/07 03:35:30;;;;;;;14.90;13.52;;;;;;;15.76;100.00;101690.47;4990841;28;20016;-66
2023/09/07 03:37:55;;;;;;;15.90;14.38;;;;;;;15.75;100.00;101698.28;4990916;28;20026;-64
2023/09/07 03:40:21;;;;;;;14.73;13.20;;;;;;;15.71;100.00;101697.31;4990187;28;20050;-65
2023/09/07 03:42:46;;;;;;;16.25;12.88;;;;;;;15.66;100.00;101701.53;4990719;28;20030;-66
2023/09/07 03:45:12;;;;;;;15.55;14.05;;;;;;;15.61;100.00;101704.91;4990513;28;20022;-65
2023/09/07 03:47:37;;;;;;;15.52;14.13;;;;;;;15.59;100.00;101709.25;4990888;28;20034;-66
2023/09/07 03:50:03;;;;;;;14.88;13.57;;;;;;;15.57;100.00;101710.94;4990094;28;20078;-65
2023/09/07 03:52:28;;;;;;;14.07;12.95;;;;;;;15.55;100.00;101707.38;4990553;28;20082;-66
2023/09/07 03:54:55;;;;;;;14.60;13.20;;;;;;;15.52;100.00;101706.44;4990417;28;20022;-66
2023/09/07 03:57:20;;;;;;;16.25;14.65;;;;;;;15.48;100.00;101700.25;4990487;28;20117;-65
2023/09/07 03:59:47;;;;;;;15.27;13.98;;;;;;;15.47;100.00;101701.09;4986372;28;20034;-64
2023/09/07 04:02:12;;;;;;;15.40;13.90;;;;;;;15.45;100.00;101705.41;4981456;28;20500;-65
2023/09/07 04:04:38;;;;;;;16.30;14.85;;;;;;;15.42;100.00;101705.28;4989734;28;20026;-65
2023/09/07 04:07:03;;;;;;;16.17;14.52;;;;;;;15.40;100.00;101707.00;4989955;28;20287;-65
2023/09/07 04:09:28;;;;;;;15.35;13.77;;;;;;;15.40;100.00;101704.41;4990067;28;20010;-65
2023/09/07 04:11:54;;;;;;;16.13;14.63;;;;;;;15.38;100.00;101704.34;4990387;28;20101;-65
2023/09/07 04:14:19;;;;;;;16.00;14.60;;;;;;;15.35;100.00;101705.16;4989850;28;20077;-64
2023/09/07 04:16:44;;;;;;;16.58;14.98;;;;;;;15.33;100.00;101703.34;4990423;28;20026;-64
2023/09/07 04:19:09;;;;;;;17.55;16.05;;;;;;;15.29;100.00;101697.16;4990526;28;20054;-65
2023/09/07 04:21:36;;;;;;;16.23;14.70;;;;;;;15.25;100.00;101703.16;4990650;28;20038;-64
2023/09/07 04:24:01;;;;;;;15.43;14.10;;;;;;;15.21;100.00;101693.47;4980883;28;20109;-66
2023/09/07 04:26:26;;;;;;;15.60;14.18;;;;;;;15.17;100.00;101694.22;4990421;28;20038;-65
2023/09/07 04:28:52;;;;;;;14.63;13.38;;;;;;;15.15;100.00;101690.69;4989943;28;20401;-66
2023/09/07 04:31:17;;;;;;;15.40;14.02;;;;;;;15.15;100.00;101703.75;4989721;28;20405;-65
2023/09/07 04:33:42;;;;;;;16.98;15.38;;;;;;;15.11;100.00;101701.03;4990247;28;20026;-66
2023/09/07 04:36:17;;;;;;;15.57;13.98;;;;;;;15.10;100.00;101708.84;4990333;28;20045;-64
2023/09/07 04:38:42;;;;;;;16.67;14.98;;;;;;;15.09;100.00;101705.34;4990014;28;20069;-65
2023/09/07 04:41:08;;;;;;;15.30;13.77;;;;;;;15.11;100.00;101708.00;4990200;28;20478;-65
2023/09/07 04:43:34;;;;;;;15.68;14.15;;;;;;;15.09;100.00;101707.94;4989739;28;20077;-65
2023/09/07 04:45:59;;;;;;;16.25;14.18;;;;;;;15.07;100.00;101704.44;4990044;28;20034;-65
2023/09/07 04:48:25;;;;;;;14.40;13.00;;;;;;;15.07;100.00;101707.03;4988720;28;20026;-65
2023/09/07 04:51:07;;;;;;;14.82;13.48;;;;;;;15.03;100.00;101707.78;4985439;28;20548;-63
2023/09/07 04:53:34;;;;;;;15.15;13.75;;;;;;;15.00;100.00;101712.94;4981258;28;20026;-65
2023/09/07 04:56:00;;;;;;;15.40;14.00;;;;;;;14.99;100.00;101699.00;4978682;28;20042;-65
2023/09/07 04:58:26;;;;;;;15.93;14.52;;;;;;;14.99;100.00;101701.59;4972753;28;20026;-66
2023/09/07 05:00:52;;;;;;;16.10;14.40;;;;;;;14.97;100.00;101698.06;4984810;28;20060;-65
2023/09/07 05:03:17;;;;;;;16.00;14.50;;;;;;;14.95;100.00;101704.09;4967862;28;20169;-66
2023/09/07 05:05:46;;;;;;;15.30;13.63;;;;;;;14.91;100.00;101699.63;4978154;28;20390;-65
2023/09/07 05:08:11;;;;;;;16.17;14.50;;;;;;;14.92;100.00;101706.59;4987354;28;20030;-65
2023/09/07 05:10:38;;;;;;;15.68;14.10;;;;;;;14.88;100.00;101709.13;4984149;28;20037;-66
2023/09/07 05:13:03;;;;;;;15.55;14.00;;;;;;;14.88;100.00;101711.75;4985220;28;20517;-65
2023/09/07 05:15:28;;;;;;;13.52;12.32;;;;;;;14.88;100.00;101711.75;4983410;28;20173;-65
2023/09/07 05:17:54;;;;;;;13.68;12.30;;;;;;;14.89;100.00;101715.25;4985137;28;20060;-65
2023/09/07 05:20:20;;;;;;;12.82;11.52;;;;;;;14.93;100.00;101716.22;4981758;28;20026;-65
2023/09/07 05:22:45;;;;;;;12.63;11.52;;;;;;;14.95;100.00;101722.38;4985242;28;20026;-65
2023/09/07 05:25:11;;;;;;;13.23;12.02;;;;;;;14.98;100.00;101719.84;4978584;28;20549;-66
2023/09/07 05:27:37;;;;;;;13.60;12.30;;;;;;;14.99;100.00;101724.19;4984100;28;20046;-63
2023/09/07 05:30:03;;;;;;;13.35;12.05;;;;;;;14.96;100.00;101731.94;4976379;28;20041;-66
2023/09/07 05:32:29;;;;;;;13.88;12.68;;;;;;;14.91;100.00;101736.16;4983673;28;20030;-65
2023/09/07 05:34:54;;;;;;;14.38;12.88;;;;;;;14.87;100.00;101728.25;4986923;28;20034;-66
2023/09/07 05:37:19;;;;;;;12.80;11.60;;;;;;;14.82;100.00;101723.72;4986256;28;20113;-63
2023/09/07 05:39:45;;;;;;;13.48;12.20;;;;;;;14.79;100.00;101734.91;4986833;28;20026;-63
2023/09/07 05:42:10;;;;;;;13.95;12.50;;;;;;;14.77;100.00;101731.38;4986528;28;20111;-65
2023/09/07 05:44:35;;;;;;;14.65;13.25;;;;;;;14.76;100.00;101735.75;4987809;28;20042;-65
2023/09/07 05:47:02;;;;;;;14.15;12.10;;;;;;;14.78;100.00;101738.38;4989393;28;20394;-66
2023/09/07 05:49:27;;;;;;;15.40;13.90;;;;;;;14.81;100.00;101748.94;4987890;28;20110;-63
2023/09/07 05:51:53;;;;;;;14.27;13.07;;;;;;;14.85;100.00;101740.38;4988675;28;20105;-65
2023/09/07 05:54:18;;;;;;;15.05;13.52;;;;;;;14.91;100.00;101742.28;4988796;28;20038;-65
2023/09/07 05:56:43;;;;;;;15.27;13.88;;;;;;;14.94;100.00;101734.53;4988388;28;20121;-65
2023/09/07 05:59:08;;;;;;;21.00;19.00;;;;;;;15.00;100.00;101734.66;4988817;28;20066;-66
2023/09/07 06:01:34;;;;;;;20.52;18.42;;;;;;;15.07;100.00;101743.59;4986192;28;20030;-65
2023/09/07 06:03:59;;;;;;;16.73;15.00;;;;;;;15.12;100.00;101743.69;4984247;28;20034;-65
2023/09/07 06:06:24;;;;;;;16.15;14.52;;;;;;;15.19;100.00;101744.75;4985725;28;20023;-64
2023/09/07 06:08:50;;;;;;;16.65;14.98;;;;;;;15.24;100.00;101750.97;4985506;28;20058;-64
2023/09/07 06:11:16;;;;;;;16.70;15.05;;;;;;;15.31;100.00;101754.66;4986521;28;20093;-64
2023/09/07 06:13:41;;;;;;;16.98;15.45;;;;;;;15.38;100.00;101753.09;4985808;28;20508;-64
2023/09/07 06:16:06;;;;;;;16.40;14.77;;;;;;;15.46;100.00;101755.06;4986300;28;20101;-65
2023/09/07 06:18:32;;;;;;;17.75;16.15;;;;;;;15.59;100.00;101756.25;4986701;28;20034;-65
2023/09/07 06:20:57;;;;;;;16.10;14.50;;;;;;;15.71;100.00;101754.78;4986859;28;20444;-65
2023/09/07 06:23:22;;;;;;;17.33;15.82;;;;;;;15.80;100.00;101754.13;4988998;28;20097;-64
2023/09/07 06:25:48;;;;;;;15.57;14.27;;;;;;;15.90;100.00;101760.50;4989995;28;20076;-64
2023/09/07 06:28:13;;;;;;;15.93;14.40;;;;;;;15.99;100.00;101765.94;4988187;28;20070;-65
2023/09/07 06:30:38;;;;;;;16.55;15.07;;;;;;;16.13;100.00;101768.03;4988847;28;20033;-65
2023/09/07 06:33:04;;;;;;;15.77;14.38;;;;;;;16.26;100.00;101764.84;4991003;28;20105;-65
2023/09/07 06:35:29;;;;;;;15.52;14.10;;;;;;;16.40;100.00;101767.78;4990458;28;20038;-63
2023/09/07 06:37:55;;;;;;;16.50;14.70;;;;;;;16.54;100.00;101768.09;4990302;28;20030;-65
2023/09/07 06:40:21;;;;;;;14.63;13.32;;;;;;;16.69;100.00;101775.38;4991052;28;20393;-65
2023/09/07 06:42:46;;;;;;;14.07;12.88;;;;;;;16.87;100.00;101774.03;4974603;28;20025;-66
2023/09/07 06:45:11;;;;;;;14.23;12.82;;;;;;;17.02;100.00;101770.81;4991404;28;20045;-64
2023/09/07 06:47:37;;;;;;;14.63;13.13;;;;;;;17.21;100.00;101773.84;4991920;28;20025;-65
2023/09/07 06:50:04;;;;;;;16.55;14.98;;;;;;;17.39;100.00;101777.66;4990895;28;20444;-65
2023/09/07 06:52:29;;;;;;;15.43;14.02;;;;;;;17.61;100.00;101778.03;4991990;28;20380;-64
2023/09/07 06:54:54;;;;;;;14.82;13.43;;;;;;;18.00;100.00;101776.94;4991456;28;20022;-65
2023/09/07 06:57:20;;;;;;;15.18;13.75;;;;;;;18.51;100.00;101775.94;4991852;28;20105;-65
2023/09/07 06:59:46;;;;;;;14.88;12.85;;;;;;;18.91;100.00;101772.97;4991919;28;20034;-65
2023/09/07 07:02:11;;;;;;;14.30;12.88;;;;;;;19.12;100.00;101774.13;4991185;28;20037;-66
2023/09/07 07:04:36;;;;;;;15.48;13.10;;;;;;;19.32;100.00;101778.66;4991497;28;20018;-65
2023/09/07 07:07:04;;;;;;;14.45;13.05;;;;;;;19.56;100.00;101779.78;4991637;28;20026;-65
2023/09/07 07:09:30;;;;;;;13.73;12.35;;;;;;;19.69;100.00;101783.41;4991452;28;20033;-65
2023/09/07 07:11:55;;;;;;;13.82;12.48;;;;;;;19.96;100.00;101783.63;4991119;28;20500;-66
2023/09/07 07:14:21;;;;;;;14.95;12.57;;;;;;;20.23;100.00;101784.72;4991365;28;20033;-65
2023/09/07 07:16:46;;;;;;;13.90;12.60;;;;;;;20.44;100.00;101794.50;4991096;28;20022;-63
2023/09/07 07:19:11;;;;;;;12.95;11.65;;;;;;;20.78;100.00;101785.88;4991586;28;20057;-63
2023/09/07 07:21:37;;;;;;;12.38;11.13;;;;;;;20.98;100.00;101790.38;4990839;28;20037;-66
2023/09/07 07:24:04;;;;;;;12.25;11.05;;;;;;;21.29;100.00;101787.84;4991076;28;20541;-66
2023/09/07 07:26:29;;;;;;;12.32;10.90;;;;;;;21.63;100.00;101788.75;4991075;28;20030;-66
2023/09/07 07:28:55;;;;;;;10.93;9.93;;;;;;;22.06;100.00;101794.06;4993511;28;20053;-66
2023/09/07 07:31:20;;;;;;;10.98;9.93;;;;;;;22.33;100.00;101788.72;5000351;28;20041;-66
2023/09/07 07:33:47;;;;;;;10.20;9.30;;;;;;;22.87;100.00;101792.09;4989761;28;20101;-67
2023/09/07 07:36:13;;;;;;;9.90;9.00;;;;;;;23.37;100.00;101789.16;4990313;28;20034;-66
2023/09/07 07:38:39;;;;;;;10.18;9.10;;;;;;;23.78;100.00;101791.56;4990708;28;20026;-66
2023/09/07 07:41:04;;;;;;;10.85;8.73;;;;;;;24.17;97.45;101788.53;4990929;28;20029;-65
2023/09/07 07:43:30;;;;;;;11.15;8.52;;;;;;;24.38;92.37;101798.03;4990578;28;20022;-67
2023/09/07 07:45:55;;;;;;;9.32;8.43;;;;;;;24.94;91.64;101805.34;4990867;28;20038;-66
2023/09/07 07:48:20;;;;;;;9.25;8.43;;;;;;;25.09;86.33;101802.50;4990691;28;20503;-66
2023/09/07 07:50:46;;;;;;;8.55;7.82;;;;;;;25.33;84.90;101800.41;4991096;28;20065;-66
2023/09/07 07:53:11;;;;;;;8.18;7.47;;;;;;;25.59;82.49;101799.13;4990435;28;20418;-66
2023/09/07 07:55:38;;;;;;;9.00;8.20;;;;;;;25.75;82.85;101802.41;4990777;28;20022;-66
2023/09/07 07:58:10;;;;;;;10.90;8.13;;;;;;;25.89;79.28;101797.75;4990132;28;20034;-66
2023/09/07 08:00:36;;;;;;;8.88;7.68;;;;;;;26.19;81.58;101793.69;4990517;28;20023;-66
2023/09/07 08:03:03;;;;;;;8.70;7.82;;;;;;;26.30;76.36;101791.69;4990400;28;20018;-66
2023/09/07 08:05:29;;;;;;;8.63;7.40;;;;;;;26.49;76.96;101791.38;4990555;28;20218;-66
2023/09/07 08:07:56;;;;;;;9.73;7.68;;;;;;;26.68;75.76;101797.16;4990076;28;20022;-66
2023/09/07 08:10:21;;;;;;;8.63;7.18;;;;;;;26.99;72.96;101790.31;4990135;28;20030;-67
2023/09/07 08:12:46;;;;;;;8.95;7.38;;;;;;;27.06;74.01;101781.31;4990169;28;20089;-66
2023/09/07 08:15:12;;;;;;;8.25;7.43;;;;;;;27.07;71.70;101787.53;4990675;28;20438;-66
2023/09/07 08:17:37;;;;;;;6.75;6.15;;;;;;;27.31;70.86;101780.72;4989612;28;20029;-67
2023/09/07 08:20:03;;;;;;;8.43;6.75;;;;;;;27.30;68.50;101783.44;4990321;28;20111;-66
2023/09/07 08:22:28;;;;;;;7.63;6.60;;;;;;;27.42;70.79;101782.25;4990068;28;20042;-66
2023/09/07 08:24:55;;;;;;;8.07;6.10;;;;;;;27.50;71.85;101767.00;4989840;28;20026;-67
2023/09/07 08:27:21;;;;;;;7.07;6.38;;;;;;;27.71;70.92;101772.69;4989476;28;20038;-66
2023/09/07 08:29:51;;;;;;;8.38;5.93;;;;;;;27.81;68.17;101768.88;4990282;28;20034;-66
2023/09/07 08:32:17;;;;;;;5.40;4.40;;;;;;;27.81;70.53;101768.03;4989625;28;20101;-66
2023/09/07 08:34:43;;;;;;;6.97;5.30;;;;;;;27.83;68.38;101765.31;4989577;28;20041;-66
2023/09/07 08:37:11;;;;;;;4.63;4.18;;;;;;;27.89;69.20;101766.03;4989475;28;20027;-67
2023/09/07 08:39:39;;;;;;;5.03;4.18;;;;;;;27.79;69.25;101762.72;4989982;28;20132;-66
2023/09/07 08:42:04;;;;;;;4.57;3.70;;;;;;;27.81;70.20;101766.22;4989594;28;20022;-66
2023/09/07 08:44:32;;;;;;;6.68;4.00;;;;;;;27.69;62.71;101769.16;4989709;28;20026;-66
2023/09/07 08:47:00;;;;;;;3.92;3.53;;;;;;;27.72;67.58;101762.94;4989510;28;20022;-66
2023/09/07 08:49:26;;;;;;;4.28;3.75;;;;;;;27.71;64.73;101761.16;4989587;28;20022;-66
2023/09/07 08:51:53;;;;;;;4.97;4.07;;;;;;;27.79;64.53;101760.06;4989415;28;20080;-66
2023/09/07 08:54:19;;;;;;;5.30;3.78;;;;;;;27.87;63.16;101756.31;4989499;28;20025;-67
2023/09/07 08:56:45;;;;;;;3.67;3.38;;;;;;;27.87;63.05;101751.88;4989078;28;20030;-66
2023/09/07 08:59:10;;;;;;;5.40;3.80;;;;;;;27.79;62.89;101753.88;4988968;28;20037;-66
2023/09/07 09:01:37;;;;;;;4.03;3.63;;;;;;;27.84;64.66;101756.41;4989770;28;20026;-65
2023/09/07 09:04:02;;;;;;;4.25;3.72;;;;;;;27.83;66.84;101750.19;4989921;28;20034;-65
2023/09/07 09:06:28;;;;;;;3.67;3.33;;;;;;;27.86;65.16;101755.47;4989285;28;20572;-66
2023/09/07 09:08:56;;;;;;;4.20;3.80;;;;;;;27.88;65.05;101752.75;4990226;28;20449;-66
2023/09/07 09:11:23;;;;;;;5.82;3.97;;;;;;;27.91;66.00;101745.56;4989543;28;20030;-66
2023/09/07 09:13:53;;;;;;;5.75;3.53;;;;;;;27.93;63.83;101750.84;4989607;28;20030;-66
2023/09/07 09:16:19;;;;;;;4.88;3.80;;;;;;;27.87;61.51;101751.88;4989488;28;20476;-66
2023/09/07 09:18:53;;;;;;;5.28;3.60;;;;;;;27.86;64.86;101755.47;4989475;28;20054;-67
2023/09/07 09:21:22;;;;;;;5.57;3.72;;;;;;;27.85;62.60;101760.84;4989097;28;20141;-67
2023/09/07 09:23:50;;;;;;;4.15;3.75;;;;;;;27.74;61.51;101756.66;4971546;28;20031;-66
2023/09/07 09:26:15;;;;;;;5.60;3.42;;;;;;;27.80;66.33;101751.16;4988379;28;20501;-66
2023/09/07 09:28:42;;;;;;;5.93;3.70;;;;;;;27.88;67.28;101747.44;4988713;28;20134;-66
2023/09/07 09:31:12;;;;;;;4.72;3.60;;;;;;;27.96;63.27;101756.06;4989331;28;20034;-67
2023/09/07 09:33:39;;;;;;;5.68;3.42;;;;;;;28.05;61.83;101754.94;4985397;28;20415;-65
2023/09/07 09:36:06;;;;;;;4.60;3.45;;;;;;;28.08;63.63;101740.69;4979738;28;20621;-67
2023/09/07 09:38:32;;;;;;;4.93;3.35;;;;;;;28.01;64.81;101743.50;4986562;28;20034;-66
2023/09/07 09:40:58;;;;;;;4.55;3.45;;;;;;;28.05;65.91;101744.28;4982234;28;20022;-67
2023/09/07 09:43:25;;;;;;;4.40;4.00;;;;;;;28.08;63.46;101741.56;4985130;28;20365;-66
2023/09/07 09:45:52;;;;;;;5.30;3.60;;;;;;;28.11;61.68;101737.94;4983741;28;20046;-66
2023/09/07 09:48:19;;;;;;;4.50;3.70;;;;;;;28.00;61.57;101735.56;4984401;28;20549;-66
2023/09/07 09:50:48;;;;;;;6.05;3.42;;;;;;;27.99;63.14;101736.50;4987363;28;20022;-67
2023/09/07 09:53:18;;;;;;;3.92;3.53;;;;;;;28.00;64.08;101736.44;4984565;28;20747;-64
2023/09/07 09:55:44;;;;;;;4.03;3.63;;;;;;;28.08;63.73;101732.69;4984673;28;20104;-66
2023/09/07 09:58:09;;;;;;;3.88;3.58;;;;;;;28.00;61.36;101731.13;4981857;28;20025;-66
2023/09/07 10:00:37;;;;;;;5.22;3.35;;;;;;;28.00;62.15;101736.44;4988129;28;20458;-65
2023/09/07 10:03:14;;;;;;;3.67;3.38;;;;;;;28.00;65.72;101732.91;4988372;28;20026;-66
2023/09/07 10:05:39;;;;;;;4.97;3.72;;;;;;;27.95;62.18;101727.72;4975273;28;20117;-65
2023/09/07 10:08:15;;;;;;;3.97;3.67;;;;;;;27.91;63.60;101718.94;4981967;28;20113;-66
2023/09/07 10:10:42;;;;;;;3.97;3.45;;;;;;;27.93;63.20;101724.22;4982078;28;20022;-66
2023/09/07 10:13:08;;;;;;;3.40;3.10;;;;;;;27.98;62.54;101716.97;4988519;28;20030;-67
2023/09/07 10:15:35;;;;;;;3.55;3.25;;;;;;;28.10;64.77;101725.53;4987996;28;20093;-67
2023/09/07 10:18:11;;;;;;;3.90;3.50;;;;;;;28.13;62.81;101728.09;4988731;28;20073;-67
2023/09/07 10:20:59;;;;;;;5.47;3.72;;;;;;;28.21;66.80;101723.41;4988135;28;20045;-67
2023/09/07 10:23:41;;;;;;;4.25;3.28;;;;;;;28.27;63.00;101725.91;4988352;28;20037;-67
2023/09/07 10:26:11;;;;;;;4.38;4.00;;;;;;;28.31;65.42;101736.47;4988730;28;20442;-66
2023/09/07 10:28:36;;;;;;;3.83;3.45;;;;;;;28.36;62.82;101723.94;4987993;28;20078;-67
2023/09/07 10:31:05;;;;;;;4.65;3.53;;;;;;;28.43;62.33;101722.81;4988217;28;20053;-67
2023/09/07 10:33:32;;;;;;;4.43;3.20;;;;;;;28.51;62.27;101728.78;4987895;28;20521;-66
2023/09/07 10:35:58;;;;;;;4.93;3.78;;;;;;;28.53;61.79;101728.78;4988414;28;20057;-66
2023/09/07 10:38:24;;;;;;;4.63;3.60;;;;;;;28.57;59.87;101717.06;4987128;28;20026;-67
2023/09/07 10:40:58;;;;;;;4.10;3.47;;;;;;;28.60;61.26;101718.78;4988241;28;20126;-66
2023/09/07 10:43:25;;;;;;;4.65;3.75;;;;;;;28.51;62.46;101709.28;4988169;28;20206;-66
2023/09/07 10:45:50;;;;;;;5.38;3.42;;;;;;;28.54;63.72;101703.84;4987800;28;20048;-66
2023/09/07 10:48:17;;;;;;;3.92;3.42;;;;;;;28.58;64.45;101709.97;4988064;28;20018;-66
2023/09/07 10:50:46;;;;;;;3.97;3.60;;;;;;;28.58;61.27;101704.63;4988011;28;20031;-67
2023/09/07 10:53:14;;;;;;;4.90;3.90;;;;;;;28.60;59.04;101702.78;4987560;28;20241;-66
2023/09/07 10:55:40;;;;;;;3.95;3.65;;;;;;;28.50;59.21;101697.75;4988510;28;20027;-66
2023/09/07 10:58:06;;;;;;;7.05;3.60;;;;;;;28.55;60.27;101694.06;4988135;28;20039;-66
2023/09/07 11:00:32;;;;;;;4.13;3.20;;;;;;;28.63;62.29;101694.69;4988010;28;20435;-66
2023/09/07 11:02:57;;;;;;;3.67;3.38;;;;;;;28.74;61.46;101686.38;4987552;28;20022;-67
2023/09/07 11:05:23;;;;;;;4.38;3.40;;;;;;;28.88;61.64;101688.59;4987978;28;20027;-66